Time;durP1;ratioP1;P1;durP2;ratioP2;P2;SDS_P1;SDS_P2;PMS_P1;PMS_P2;Temp;Humidity;BMP_temperature;BMP_pressure;BME280_temperature;BME280_humidity;BME280_pressure;Samples;Min_cycle;Max_cycle;Signal;HPM_P1;HPM_P2
2022/09/17 00:03:12;;;;;;;8.45;4.20;;;;;;;19.56;79.32;99488.88;10279380;28;20067;-69
2022/09/17 00:08:14;;;;;;;12.00;5.82;;;;;;;19.52;80.24;99500.38;10261033;28;20055;-69
2022/09/17 00:13:16;;;;;;;10.30;4.68;;;;;;;19.34;80.48;99466.44;10281113;28;20059;-69
2022/09/17 00:18:17;;;;;;;7.13;4.20;;;;;;;19.39;80.55;99485.38;10244567;29;20043;-69
2022/09/17 00:23:18;;;;;;;9.15;4.70;;;;;;;19.51;81.66;99512.22;10261755;28;20460;-70
2022/09/17 00:28:19;;;;;;;8.40;3.97;;;;;;;19.45;81.47;99497.03;10286045;28;20116;-69
2022/09/17 00:33:19;;;;;;;17.38;5.03;;;;;;;19.21;82.20;99456.84;10284684;28;20051;-69
2022/09/17 00:38:20;;;;;;;10.95;4.78;;;;;;;19.34;82.57;99472.63;10285090;28;20409;-69
2022/09/17 00:43:40;;;;;;;18.83;4.68;;;;;;;19.52;83.21;99489.59;10262942;28;20058;-70
2022/09/17 00:48:42;;;;;;;10.45;3.70;;;;;;;19.29;82.75;99460.97;10251652;28;20047;-69
2022/09/17 00:53:43;;;;;;;7.32;3.72;;;;;;;19.35;82.36;99455.44;10256653;28;20453;-69
2022/09/17 00:58:45;;;;;;;13.52;4.25;;;;;;;19.32;82.75;99463.97;10286764;28;20179;-69
2022/09/17 01:03:46;;;;;;;10.13;3.90;;;;;;;19.43;83.01;99483.81;10284085;28;20058;-69
2022/09/17 01:09:09;;;;;;;11.15;4.95;;;;;;;18.98;83.33;99428.22;10269911;28;20035;-69
2022/09/17 01:14:28;;;;;;;;;;;;;;;19.70;83.25;99535.16;10247769;28;20142;-69
2022/09/17 01:20:08;;;;;;;10.05;3.70;;;;;;;19.55;86.00;99532.22;10261112;28;19926;-68
2022/09/17 01:25:14;;;;;;;7.63;4.05;;;;;;;19.43;83.77;99526.91;10255237;28;20494;-69
2022/09/17 01:30:54;;;;;;;13.32;5.32;;;;;;;19.44;86.39;99516.94;10250204;28;20047;-69
2022/09/17 01:36:26;;;;;;;11.95;5.50;;;;;;;19.43;85.64;99505.34;10239400;28;20066;-69
2022/09/17 01:41:42;;;;;;;7.47;4.60;;;;;;;18.96;86.29;99489.53;10249770;29;20051;-69
2022/09/17 01:46:50;;;;;;;9.80;5.07;;;;;;;19.37;86.82;99552.13;10249862;28;20043;-69
2022/09/17 01:51:53;;;;;;;8.18;4.68;;;;;;;19.38;85.84;99564.53;10250134;28;20438;-69
2022/09/17 01:57:00;;;;;;;9.57;4.05;;;;;;;18.94;88.01;99478.22;10249772;28;20054;-69
2022/09/17 02:02:14;;;;;;;12.88;4.80;;;;;;;19.29;87.83;99555.22;10250227;28;20469;-69
2022/09/17 02:07:19;;;;;;;12.38;4.57;;;;;;;19.06;88.78;99548.13;10249072;28;20070;-69
2022/09/17 02:12:28;;;;;;;46.35;7.55;;;;;;;19.12;90.29;99550.66;10249488;28;20047;-68
2022/09/17 02:17:49;;;;;;;29.92;6.38;;;;;;;19.04;92.83;99540.28;10249405;28;20130;-68
2022/09/17 02:22:56;;;;;;;19.60;5.22;;;;;;;18.88;91.31;99544.59;10249160;28;20078;-68
2022/09/17 02:28:02;;;;;;;12.02;4.95;;;;;;;18.51;91.05;99497.59;10264220;28;20094;-69
2022/09/17 02:33:07;;;;;;;59.55;11.90;;;;;;;18.66;91.63;99535.53;10261357;28;20057;-68
2022/09/17 02:38:08;;;;;;;43.15;11.50;;;;;;;18.75;91.01;99546.75;10266234;28;20046;-69
2022/09/17 02:43:46;;;;;;;18.08;7.50;;;;;;;18.76;94.26;99548.41;10288074;28;20051;-68
2022/09/17 02:49:24;;;;;;;13.38;6.40;;;;;;;18.82;95.05;99560.88;10277348;28;20043;-68
2022/09/17 02:54:40;;;;;;;40.47;6.88;;;;;;;18.40;94.54;99486.66;10246795;29;20040;-69
2022/09/17 03:00:06;;;;;;;32.90;6.65;;;;;;;18.83;99.77;99549.88;10248071;28;20503;-69
2022/09/17 03:05:08;;;;;;;16.70;5.75;;;;;;;18.35;95.09;99475.78;10250270;28;20055;-69
2022/09/17 03:10:10;;;;;;;69.13;8.20;;;;;;;18.71;95.50;99541.00;10267570;28;20050;-69
2022/09/17 03:15:10;;;;;;;28.83;6.15;;;;;;;18.58;95.29;99517.09;10282651;28;20495;-68
2022/09/17 03:20:12;;;;;;;22.67;5.15;;;;;;;18.40;95.17;99472.41;10287175;28;20133;-69
2022/09/17 03:25:13;;;;;;;72.05;8.00;;;;;;;19.03;94.55;99552.13;10287230;28;20406;-68
2022/09/17 03:30:14;;;;;;;10.85;4.07;;;;;;;19.32;93.61;99578.97;10256278;28;20043;-70
2022/09/17 03:35:15;;;;;;;8.38;4.70;;;;;;;19.66;92.07;99565.53;10260977;28;20045;-69
2022/09/17 03:40:16;;;;;;;32.60;6.40;;;;;;;19.83;91.15;99556.38;10246182;28;20043;-69
2022/09/17 03:45:17;;;;;;;12.38;4.90;;;;;;;19.27;90.46;99460.44;10257534;28;20425;-70
2022/09/17 03:50:17;;;;;;;27.85;6.03;;;;;;;19.91;90.09;99547.03;10280120;28;20035;-69
2022/09/17 03:55:18;;;;;;;7.28;4.43;;;;;;;20.51;87.43;99562.34;10283664;28;20042;-69
2022/09/17 04:00:19;;;;;;;40.25;5.90;;;;;;;21.29;84.39;99518.03;10283145;28;20046;-69
2022/09/17 04:05:20;;;;;;;8.77;4.47;;;;;;;22.00;81.78;99577.19;10284119;28;20061;-70
2022/09/17 04:10:22;;;;;;;21.58;5.50;;;;;;;21.59;82.04;99549.91;10283279;28;20095;-69
2022/09/17 04:15:22;;;;;;;6.88;3.72;;;;;;;20.91;82.01;99526.09;10276333;28;20082;-68
2022/09/17 04:20:24;;;;;;;12.68;4.72;;;;;;;21.08;82.09;99584.56;10255428;28;20564;-69
2022/09/17 04:25:25;;;;;;;14.63;4.70;;;;;;;20.82;82.52;99551.94;10252341;28;20043;-69
2022/09/17 04:30:26;;;;;;;12.80;4.75;;;;;;;20.89;82.60;99571.44;10251331;29;20184;-68
2022/09/17 04:35:27;;;;;;;9.80;4.28;;;;;;;20.96;81.97;99587.41;10251903;28;20039;-68
2022/09/17 04:40:28;;;;;;;35.40;6.40;;;;;;;21.06;82.31;99584.84;10251713;28;20054;-68
2022/09/17 04:45:32;;;;;;;15.77;5.35;;;;;;;21.00;82.42;99563.41;10252140;28;20042;-69
2022/09/17 04:50:32;;;;;;;10.38;4.95;;;;;;;21.46;80.30;99575.47;10252227;28;20086;-69
2022/09/17 04:55:34;;;;;;;17.25;5.45;;;;;;;21.98;77.34;99553.09;10251815;28;20040;-68
2022/09/17 05:00:34;;;;;;;7.28;4.55;;;;;;;22.55;74.33;99551.47;10250986;28;20054;-68
2022/09/17 05:05:35;;;;;;;16.95;5.03;;;;;;;22.17;74.35;99485.09;10250813;28;20058;-69
2022/09/17 05:10:36;;;;;;;24.17;5.55;;;;;;;22.54;73.95;99561.50;10251551;28;20058;-68
2022/09/17 05:15:37;;;;;;;197.13;18.90;;;;;;;22.09;74.47;99502.59;10250634;28;20050;-68
2022/09/17 05:20:38;;;;;;;71.00;13.68;;;;;;;22.47;74.63;99554.72;10262422;28;20049;-68
2022/09/17 05:25:39;;;;;;;28.08;12.20;;;;;;;22.48;73.18;99559.84;10271420;28;20092;-69
2022/09/17 05:30:39;;;;;;;22.98;8.23;;;;;;;22.83;72.10;99552.91;10282767;28;20141;-69
2022/09/17 05:35:42;;;;;;;38.05;8.07;;;;;;;23.54;70.42;99551.34;10290744;28;20039;-68
2022/09/17 05:40:44;;;;;;;15.68;5.88;;;;;;;24.00;67.74;99562.94;10283622;28;20051;-69
2022/09/17 05:45:45;;;;;;;16.52;5.38;;;;;;;24.37;66.57;99553.56;10249907;28;20047;-68
2022/09/17 05:50:46;;;;;;;12.65;4.68;;;;;;;24.43;64.86;99500.09;10249446;28;20051;-68
2022/09/17 05:55:47;;;;;;;11.57;4.47;;;;;;;24.78;63.88;99520.81;10250001;28;20121;-67
2022/09/17 06:00:48;;;;;;;12.73;5.13;;;;;;;25.41;62.86;99556.22;10249089;28;20395;-67
2022/09/17 06:05:59;;;;;;;9.27;3.53;;;;;;;25.17;61.52;99479.25;10249193;28;20536;-68
2022/09/17 06:11:04;;;;;;;7.68;4.00;;;;;;;25.45;62.36;99570.84;10249775;28;20040;-68
2022/09/17 06:16:05;;;;;;;9.05;4.38;;;;;;;25.30;62.53;99575.63;10249215;28;20437;-68
2022/09/17 06:21:05;;;;;;;15.80;7.22;;;;;;;25.09;62.64;99575.72;10249578;28;20047;-68
2022/09/17 06:26:06;;;;;;;13.57;5.13;;;;;;;25.38;62.19;99592.13;10248904;28;20031;-68
2022/09/17 06:31:09;;;;;;;8.60;4.97;;;;;;;25.46;60.95;99526.28;10248433;28;20047;-68
2022/09/17 06:36:11;;;;;;;9.43;4.50;;;;;;;26.01;61.22;99601.38;10249319;28;20490;-68
2022/09/17 06:41:13;;;;;;;18.23;4.05;;;;;;;26.18;59.16;99569.06;10248355;28;20043;-68
2022/09/17 06:46:14;;;;;;;13.05;3.90;;;;;;;26.13;58.32;99552.78;10247456;28;20512;-69
2022/09/17 06:51:15;;;;;;;12.02;4.78;;;;;;;26.29;59.35;99607.88;10248174;28;20045;-68
2022/09/17 06:56:16;;;;;;;10.45;4.65;;;;;;;26.21;59.95;99600.34;10248048;28;20084;-68
2022/09/17 07:01:17;;;;;;;12.90;4.35;;;;;;;25.48;59.40;99466.94;10247926;28;20054;-68
2022/09/17 07:06:18;;;;;;;28.55;4.88;;;;;;;26.35;58.71;99566.66;10248280;28;20530;-68
2022/09/17 07:11:19;;;;;;;12.40;4.82;;;;;;;26.38;58.17;99513.53;10247747;28;20051;-68
2022/09/17 07:16:20;;;;;;;10.13;4.05;;;;;;;27.56;55.70;99579.97;10246948;28;20043;-68
2022/09/17 07:21:20;;;;;;;8.73;3.33;;;;;;;27.94;52.14;99586.09;10247261;28;20043;-68
2022/09/17 07:26:21;;;;;;;10.57;4.53;;;;;;;28.14;50.75;99599.34;10247901;28;20044;-68
2022/09/17 07:31:22;;;;;;;7.88;3.00;;;;;;;28.21;49.54;99590.78;10247101;28;20047;-68
2022/09/17 07:36:23;;;;;;;40.78;5.47;;;;;;;28.02;49.90;99598.25;10246972;28;20130;-68
2022/09/17 07:41:24;;;;;;;19.33;5.38;;;;;;;27.53;50.95;99567.72;10246352;28;20043;-68
2022/09/17 07:46:24;;;;;;;8.85;3.67;;;;;;;27.45;51.26;99606.59;10246434;28;20039;-70
2022/09/17 07:51:29;;;;;;;15.07;5.13;;;;;;;26.82;52.54;99540.47;10247297;28;20097;-68
2022/09/17 07:56:29;;;;;;;11.30;4.10;;;;;;;27.16;53.36;99602.13;10246179;28;20051;-69
2022/09/17 08:01:35;;;;;;;17.77;4.25;;;;;;;27.17;52.89;99606.47;10245617;28;20050;-68
2022/09/17 08:06:37;;;;;;;13.77;5.28;;;;;;;27.02;52.74;99588.41;10245828;28;20087;-68
2022/09/17 08:11:37;;;;;;;12.93;5.82;;;;;;;27.18;53.06;99607.28;10246472;28;20039;-68
2022/09/17 08:16:38;;;;;;;26.85;6.15;;;;;;;27.44;54.31;99604.97;10245125;28;20054;-68
2022/09/17 08:21:39;;;;;;;15.70;4.60;;;;;;;27.73;51.15;99607.47;10245145;28;20051;-68
2022/09/17 08:26:40;;;;;;;25.05;8.60;;;;;;;27.99;50.18;99602.38;10247530;28;20089;-68
2022/09/17 08:31:41;;;;;;;20.75;4.68;;;;;;;27.98;50.38;99573.47;10283897;28;20050;-69
2022/09/17 08:36:42;;;;;;;17.25;3.60;;;;;;;28.11;49.25;99542.63;10285048;28;20042;-68
2022/09/17 08:42:17;;;;;;;12.40;3.40;;;;;;;28.72;47.28;99606.16;10284353;28;20039;-69
2022/09/17 08:47:32;;;;;;;9.75;3.45;;;;;;;28.86;47.78;99603.38;10285948;28;20046;-68
2022/09/17 08:52:58;;;;;;;13.90;3.38;;;;;;;29.24;45.40;99600.34;10258455;28;20070;-68
2022/09/17 08:58:29;;;;;;;14.10;2.90;;;;;;;29.61;42.57;99606.53;10244468;28;20047;-69
2022/09/17 09:04:01;;;;;;;12.13;3.23;;;;;;;29.79;39.72;99611.03;10244017;28;20078;-69
2022/09/17 09:09:10;;;;;;;10.88;2.00;;;;;;;30.05;38.23;99607.63;10288982;28;20509;-69
2022/09/17 09:14:46;;;;;;;22.00;2.22;;;;;;;29.95;35.64;99554.75;10278141;28;20533;-69
2022/09/17 09:19:48;;;;;;;15.48;2.80;;;;;;;30.45;37.50;99606.50;10271538;28;20058;-69
2022/09/17 09:25:01;;;;;;;;;;;;;;;30.81;36.30;99602.72;10291876;28;20080;-69
2022/09/17 09:30:03;;;;;;;24.63;2.50;;;;;;;30.98;36.89;99612.88;10267987;28;20358;-67
2022/09/17 09:35:28;;;;;;;19.08;3.10;;;;;;;31.00;36.03;99615.31;10268858;28;20091;-67
2022/09/17 09:40:47;;;;;;;12.60;2.30;;;;;;;30.48;35.14;99558.44;10269062;28;20387;-68
2022/09/17 09:45:48;;;;;;;19.90;3.38;;;;;;;30.51;35.99;99611.81;10268407;28;20043;-69
2022/09/17 09:51:17;;;;;;;17.52;2.45;;;;;;;30.16;34.90;99620.72;10266100;28;20553;-68
2022/09/17 09:56:21;;;;;;;10.52;2.20;;;;;;;29.72;36.30;99627.91;10320041;28;20133;-69
2022/09/17 10:01:25;;;;;;;12.45;2.72;;;;;;;29.39;36.60;99621.06;10271497;28;20042;-67
2022/09/17 10:06:30;;;;;;;9.18;2.10;;;;;;;29.13;37.04;99644.31;10274587;28;20062;-68
2022/09/17 10:11:32;;;;;;;13.63;2.38;;;;;;;28.49;38.36;99567.00;10277368;28;20073;-68
2022/09/17 10:16:35;;;;;;;27.23;3.73;;;;;;;28.70;38.82;99607.56;10272892;28;20043;-68
2022/09/17 10:21:41;;;;;;;9.18;1.80;;;;;;;28.78;38.39;99637.72;10273557;28;20455;-67
2022/09/17 10:26:42;;;;;;;5.55;1.80;;;;;;;28.55;37.70;99579.44;10277739;28;20045;-68
2022/09/17 10:31:49;;;;;;;27.90;2.97;;;;;;;28.83;36.62;99599.31;10264703;28;20121;-68
2022/09/17 10:36:50;;;;;;;17.85;2.10;;;;;;;29.09;36.71;99607.78;10273894;28;20065;-68
2022/09/17 10:41:56;;;;;;;7.45;1.92;;;;;;;29.27;35.71;99621.59;10266957;28;20058;-69
2022/09/17 10:47:05;;;;;;;13.50;2.25;;;;;;;29.41;35.31;99651.66;10268132;28;20043;-68
2022/09/17 10:52:10;;;;;;;19.70;3.00;;;;;;;29.44;35.78;99649.09;10273513;28;20448;-68
2022/09/17 10:57:20;;;;;;;8.70;2.47;;;;;;;29.51;35.18;99654.13;10278836;28;20109;-68
2022/09/17 11:02:42;;;;;;;15.65;2.83;;;;;;;29.55;34.89;99650.44;10246902;29;20038;-68
2022/09/17 11:08:24;;;;;;;9.80;2.30;;;;;;;29.44;35.61;99643.63;10248739;28;20046;-68
2022/09/17 11:14:01;;;;;;;15.40;1.85;;;;;;;29.10;36.14;99644.94;10304110;28;20047;-68
2022/09/17 11:19:39;;;;;;;14.60;2.90;;;;;;;28.83;37.51;99667.66;10268003;28;20146;-70
2022/09/17 11:25:07;;;;;;;13.90;1.85;;;;;;;28.70;38.42;99667.69;10261858;28;20071;-68
2022/09/17 11:30:38;;;;;;;5.90;1.98;;;;;;;28.36;37.59;99590.47;10269848;28;20087;-68
2022/09/17 11:35:53;;;;;;;13.52;2.17;;;;;;;28.75;38.12;99648.44;10285813;28;20096;-68
2022/09/17 11:41:15;;;;;;;11.40;2.25;;;;;;;28.82;38.38;99666.03;10286475;28;20055;-67
2022/09/17 11:46:29;;;;;;;21.65;2.65;;;;;;;28.94;38.20;99662.78;10287289;28;20398;-67
2022/09/17 11:51:34;;;;;;;15.65;2.20;;;;;;;28.99;38.02;99653.66;10286576;28;20043;-67
2022/09/17 11:56:43;;;;;;;14.85;1.92;;;;;;;29.00;38.86;99660.75;10274216;28;20108;-68
2022/09/17 12:01:51;;;;;;;12.32;2.10;;;;;;;28.67;38.26;99598.84;10273220;28;20042;-68
2022/09/17 12:07:01;;;;;;;15.45;2.10;;;;;;;29.11;38.39;99673.94;10247147;28;20059;-68
2022/09/17 12:12:22;;;;;;;9.98;2.38;;;;;;;29.02;39.24;99647.63;10264834;28;20391;-68
2022/09/17 12:18:01;;;;;;;21.55;2.65;;;;;;;29.21;39.54;99661.94;10264016;28;20042;-69
2022/09/17 12:23:09;;;;;;;49.97;5.35;;;;;;;28.90;38.80;99616.13;10283324;28;20147;-68
2022/09/17 12:28:19;;;;;;;16.75;2.83;;;;;;;28.84;38.26;99600.97;10261356;28;20049;-68
2022/09/17 12:33:56;;;;;;;11.95;3.70;;;;;;;29.29;38.23;99647.53;10262152;28;20122;-68
2022/09/17 12:39:14;;;;;;;16.65;4.32;;;;;;;29.26;37.46;99658.28;10262278;28;20047;-67
2022/09/17 12:44:27;;;;;;;38.45;5.15;;;;;;;29.15;42.36;99646.75;10270303;28;20409;-68
2022/09/17 12:49:49;;;;;;;59.78;7.63;;;;;;;29.08;41.97;99651.88;10274012;28;20040;-70
2022/09/17 12:55:03;;;;;;;48.87;5.73;;;;;;;28.57;40.83;99590.88;10276249;28;20054;-71
2022/09/17 13:00:10;;;;;;;26.92;4.97;;;;;;;28.98;39.99;99677.44;10273756;28;20100;-71
2022/09/17 13:05:47;;;;;;;71.38;6.82;;;;;;;28.98;40.87;99673.91;10267117;28;20113;-67
2022/09/17 13:11:18;;;;;;;23.02;4.40;;;;;;;28.90;41.73;99678.19;10271646;28;20101;-68
2022/09/17 13:16:44;;;;;;;79.60;7.68;;;;;;;28.85;42.39;99686.50;10277945;28;20092;-68
2022/09/17 13:21:55;;;;;;;11.52;3.22;;;;;;;28.67;42.98;99682.78;10275997;28;20043;-68
2022/09/17 13:27:00;;;;;;;30.58;4.72;;;;;;;28.51;42.62;99676.81;10273746;28;20047;-70
2022/09/17 13:32:01;;;;;;;18.05;3.50;;;;;;;27.64;43.12;99560.97;10270704;28;20047;-67
2022/09/17 13:37:04;;;;;;;22.42;3.95;;;;;;;27.54;43.51;99572.06;10260602;28;20494;-68
2022/09/17 13:42:27;;;;;;;;;;;;;;;28.40;44.11;99691.75;10268091;28;20050;-68
2022/09/17 13:47:34;;;;;;;121.03;10.00;;;;;;;27.63;46.29;99611.19;10266431;28;20017;-68
2022/09/17 13:52:46;;;;;;;76.40;7.07;;;;;;;28.07;46.16;99680.88;10269943;28;20041;-67
2022/09/17 13:57:50;;;;;;;88.23;7.27;;;;;;;27.94;46.79;99676.19;10271621;28;20043;-68
2022/09/17 14:02:50;;;;;;;124.10;9.50;;;;;;;27.64;46.68;99650.19;10265171;28;20490;-67
2022/09/17 14:08:10;;;;;;;132.95;12.60;;;;;;;27.67;50.05;99669.53;10270798;28;20084;-68
2022/09/17 14:13:34;;;;;;;34.08;5.47;;;;;;;27.62;49.43;99679.69;10276295;28;20061;-68
2022/09/17 14:18:54;;;;;;;22.17;4.15;;;;;;;26.97;49.59;99598.56;10276711;28;20133;-67
2022/09/17 14:23:58;;;;;;;32.22;6.30;;;;;;;27.41;52.39;99688.19;10271785;28;20066;-68
2022/09/17 14:29:25;;;;;;;24.10;5.63;;;;;;;27.37;53.40;99692.59;10267892;28;20047;-67
2022/09/17 14:34:27;;;;;;;25.42;4.82;;;;;;;27.06;53.33;99673.13;10275680;28;20050;-67
2022/09/17 14:39:38;;;;;;;15.15;3.92;;;;;;;26.61;54.79;99634.47;10274954;28;20077;-68
2022/09/17 14:44:48;;;;;;;100.30;9.48;;;;;;;26.81;57.54;99713.25;10283465;28;20061;-67
2022/09/17 14:49:49;;;;;;;41.00;6.78;;;;;;;26.52;56.24;99707.84;10284033;28;20043;-68
2022/09/17 14:55:14;;;;;;;52.30;7.50;;;;;;;26.35;59.11;99719.16;10279992;28;20043;-68
2022/09/17 15:00:20;;;;;;;64.25;8.55;;;;;;;26.07;57.96;99719.97;10283150;28;20125;-67
2022/09/17 15:05:29;;;;;;;39.90;7.43;;;;;;;25.39;57.52;99648.13;10284820;28;20054;-68
2022/09/17 15:10:30;;;;;;;18.52;5.80;;;;;;;25.36;58.75;99694.91;10278917;28;20056;-67
2022/09/17 15:15:31;;;;;;;31.02;7.20;;;;;;;24.90;60.88;99676.13;10267058;28;20072;-67
2022/09/17 15:20:32;;;;;;;31.73;6.43;;;;;;;24.92;60.86;99717.41;10284134;28;20039;-67
2022/09/17 15:25:36;;;;;;;66.50;9.05;;;;;;;24.56;64.01;99717.53;10268267;28;20054;-67
2022/09/17 15:30:37;;;;;;;55.38;7.75;;;;;;;24.25;63.77;99708.59;10267091;28;20516;-67
2022/09/17 15:35:39;;;;;;;79.93;9.43;;;;;;;23.68;65.08;99661.66;10247226;28;20043;-67
2022/09/17 15:40:41;;;;;;;81.53;11.15;;;;;;;23.68;66.67;99715.09;10269534;28;20043;-67
2022/09/17 15:45:42;;;;;;;70.32;13.32;;;;;;;23.52;67.52;99727.81;10286800;28;20046;-67
2022/09/17 15:50:52;;;;;;;68.47;14.45;;;;;;;23.41;72.03;99715.34;10287514;28;20125;-68
2022/09/17 15:56:13;;;;;;;78.03;16.92;;;;;;;23.41;72.85;99743.25;10285166;28;20043;-68
2022/09/17 16:01:17;;;;;;;65.88;14.20;;;;;;;22.72;70.55;99675.81;10285029;28;20455;-68
2022/09/17 16:06:17;;;;;;;;;;;;;;;23.21;69.39;99765.69;10281915;28;20059;-68
2022/09/17 16:11:20;;;;;;;65.65;22.48;;;;;;;22.84;70.85;99767.66;10278917;28;20300;-68
2022/09/17 16:16:24;;;;;;;165.52;83.70;;;;;;;22.60;71.21;99765.34;10278500;28;20035;-68
2022/09/17 16:21:25;;;;;;;125.78;59.38;;;;;;;22.39;71.99;99744.66;10278260;28;20047;-68
2022/09/17 16:26:32;;;;;;;122.47;60.00;;;;;;;22.43;74.32;99772.81;10282712;28;20449;-69
2022/09/17 16:31:33;;;;;;;121.55;48.53;;;;;;;22.28;72.84;99762.69;10286057;28;20078;-68
2022/09/17 16:36:35;;;;;;;110.82;46.63;;;;;;;22.28;73.93;99774.31;10284134;28;20081;-68
2022/09/17 16:41:35;;;;;;;103.05;47.22;;;;;;;22.11;74.97;99787.97;10528293;28;20059;-68
2022/09/17 16:46:36;;;;;;;109.72;49.65;;;;;;;21.56;75.09;99712.56;10536552;28;20043;-67
2022/09/17 16:51:37;;;;;;;91.63;44.20;;;;;;;21.82;74.60;99763.09;10535418;28;20078;-68
2022/09/17 16:56:37;;;;;;;96.38;42.47;;;;;;;21.98;75.72;99784.88;10536946;28;20486;-67
2022/09/17 17:01:38;;;;;;;102.07;40.10;;;;;;;21.88;76.29;99782.88;10536410;28;20048;-68
2022/09/17 17:06:39;;;;;;;59.80;24.85;;;;;;;21.74;76.18;99768.97;10535821;28;20064;-68
2022/09/17 17:11:40;;;;;;;64.78;30.42;;;;;;;21.28;75.61;99706.31;10535972;28;20063;-68
2022/09/17 17:16:42;;;;;;;142.93;77.88;;;;;;;21.58;75.90;99769.88;10536458;28;20040;-68
2022/09/17 17:21:43;;;;;;;274.20;155.75;;;;;;;21.51;75.66;99774.66;10507512;28;20526;-69
2022/09/17 17:26:45;;;;;;;201.30;118.82;;;;;;;21.55;76.23;99802.84;10523573;28;20082;-68
2022/09/17 17:31:48;;;;;;;145.07;82.22;;;;;;;21.40;76.30;99781.84;10524719;28;20492;-69
2022/09/17 17:36:49;;;;;;;112.90;61.75;;;;;;;21.62;76.64;99789.91;10533044;28;20071;-68
2022/09/17 17:41:52;;;;;;;56.35;30.60;;;;;;;21.27;77.17;99738.97;10522570;28;20059;-68
2022/09/17 17:46:53;;;;;;;60.92;21.60;;;;;;;21.61;76.51;99801.81;10531196;28;20068;-69
2022/09/17 17:51:54;;;;;;;50.30;21.73;;;;;;;21.69;76.68;99811.34;10534134;28;20063;-69
2022/09/17 17:56:55;;;;;;;40.10;15.23;;;;;;;21.58;76.51;99822.06;10523247;28;20120;-68
2022/09/17 18:01:56;;;;;;;33.15;12.50;;;;;;;21.15;75.90;99690.53;10534634;28;20048;-67
2022/09/17 18:06:57;;;;;;;32.28;12.88;;;;;;;21.73;75.45;99758.41;10527999;28;20442;-69
2022/09/17 18:11:57;;;;;;;26.52;7.65;;;;;;;21.84;73.62;99743.94;10529512;28;20058;-68
2022/09/17 18:16:58;;;;;;;18.60;6.50;;;;;;;22.11;73.19;99784.47;10531342;28;20032;-69
2022/09/17 18:21:59;;;;;;;14.60;8.10;;;;;;;22.10;73.74;99778.22;10530057;28;20040;-68
2022/09/17 18:27:00;;;;;;;24.90;7.57;;;;;;;21.86;75.19;99742.56;10534373;28;20048;-68
2022/09/17 18:32:01;;;;;;;12.98;4.72;;;;;;;21.58;74.25;99705.84;10529469;28;20571;-69
2022/09/17 18:37:02;;;;;;;16.60;5.28;;;;;;;21.85;73.77;99750.97;10525369;28;20058;-69
2022/09/17 18:42:03;;;;;;;15.13;5.32;;;;;;;21.88;74.29;99762.06;10509735;28;20074;-68
2022/09/17 18:47:04;;;;;;;17.85;4.95;;;;;;;21.84;74.47;99766.38;10530045;28;20040;-68
2022/09/17 18:52:05;;;;;;;61.95;8.13;;;;;;;21.63;75.59;99751.03;10536772;28;20399;-68
2022/09/17 18:57:06;;;;;;;35.30;6.25;;;;;;;21.62;76.28;99752.09;10536654;28;20040;-68
2022/09/17 19:02:10;;;;;;;14.38;4.45;;;;;;;21.35;77.46;99749.34;10535846;28;20039;-68
2022/09/17 19:07:11;;;;;;;19.92;7.90;;;;;;;20.27;77.15;99612.22;10535886;28;20048;-68
2022/09/17 19:12:12;;;;;;;18.23;6.30;;;;;;;21.00;77.53;99738.94;10535839;28;20074;-68
2022/09/17 19:17:13;;;;;;;24.67;6.70;;;;;;;21.11;77.79;99768.50;10532650;28;20655;-68
2022/09/17 19:22:14;;;;;;;19.92;7.45;;;;;;;20.91;79.64;99763.69;10533980;28;20048;-68
2022/09/17 19:27:15;;;;;;;21.05;6.75;;;;;;;20.54;79.85;99732.94;10534181;28;20496;-67
2022/09/17 19:32:16;;;;;;;16.00;6.47;;;;;;;20.61;80.17;99752.44;10533438;28;20036;-69
2022/09/17 19:37:17;;;;;;;16.33;6.82;;;;;;;20.51;80.40;99751.22;10531044;28;20619;-68
2022/09/17 19:42:18;;;;;;;17.60;6.63;;;;;;;20.32;80.76;99708.59;10501939;28;20077;-68
2022/09/17 19:47:18;;;;;;;81.30;29.80;;;;;;;20.48;81.79;99761.69;10515225;28;20036;-69
2022/09/17 19:52:19;;;;;;;26.42;9.68;;;;;;;20.04;81.81;99713.84;10533994;28;20082;-69
2022/09/17 19:57:20;;;;;;;28.50;10.00;;;;;;;20.20;81.94;99757.22;10533824;28;20032;-68
2022/09/17 20:02:21;;;;;;;19.05;7.53;;;;;;;20.10;82.88;99748.94;10533463;28;20044;-69
2022/09/17 20:07:22;;;;;;;19.42;7.47;;;;;;;19.75;83.45;99704.19;10533827;28;20423;-69
2022/09/17 20:12:22;;;;;;;44.95;7.82;;;;;;;19.59;84.19;99700.38;10533968;28;20046;-68
2022/09/17 20:17:23;;;;;;;18.65;6.95;;;;;;;19.64;85.37;99713.94;10534419;28;20039;-71
2022/09/17 20:22:24;;;;;;;24.02;6.40;;;;;;;19.98;85.60;99770.59;10533113;28;20040;-69
2022/09/17 20:27:25;;;;;;;14.60;5.45;;;;;;;19.97;86.23;99769.78;10533598;28;20054;-70
2022/09/17 20:32:26;;;;;;;23.02;5.95;;;;;;;19.84;86.52;99751.25;10535811;28;20062;-69
2022/09/17 20:37:27;;;;;;;16.70;5.38;;;;;;;19.84;86.67;99753.94;10536682;28;20107;-69
2022/09/17 20:42:28;;;;;;;16.88;5.32;;;;;;;19.73;86.47;99727.88;10537060;28;20044;-69
2022/09/17 20:47:29;;;;;;;14.30;4.75;;;;;;;19.83;86.49;99749.59;10537012;28;20554;-69
2022/09/17 20:52:30;;;;;;;10.23;4.65;;;;;;;19.73;87.19;99744.84;10536740;28;20093;-69
2022/09/17 20:57:31;;;;;;;26.55;5.30;;;;;;;19.70;87.22;99742.63;10536250;28;20036;-69
2022/09/17 21:02:33;;;;;;;15.13;4.70;;;;;;;19.73;86.94;99747.53;10541042;28;20067;-69
2022/09/17 21:07:33;;;;;;;15.00;4.90;;;;;;;19.68;87.39;99747.44;10545345;28;20567;-69
2022/09/17 21:12:34;;;;;;;14.63;4.90;;;;;;;19.55;88.16;99745.03;10543964;28;20046;-69
2022/09/17 21:17:35;;;;;;;23.02;4.63;;;;;;;19.37;88.20;99737.97;10544262;28;20047;-69
2022/09/17 21:22:36;;;;;;;19.05;6.20;;;;;;;19.43;88.33;99752.34;10544299;28;20081;-69
2022/09/17 21:27:37;;;;;;;15.85;5.70;;;;;;;19.06;88.59;99702.38;10543319;28;20123;-69
2022/09/17 21:32:37;;;;;;;20.77;6.55;;;;;;;18.76;88.82;99664.09;10543342;28;20061;-70
2022/09/17 21:37:38;;;;;;;19.88;6.68;;;;;;;18.94;89.86;99720.44;10544085;28;20047;-69
2022/09/17 21:42:39;;;;;;;17.80;6.15;;;;;;;19.03;90.44;99745.91;10543305;28;20475;-69
2022/09/17 21:47:40;;;;;;;27.38;7.25;;;;;;;18.60;90.27;99681.75;10543192;28;20040;-69
2022/09/17 21:52:41;;;;;;;18.00;7.15;;;;;;;18.70;90.70;99717.75;10541976;28;20415;-69
2022/09/17 21:57:41;;;;;;;20.45;7.68;;;;;;;18.67;90.78;99712.03;10542681;28;20047;-69
2022/09/17 22:02:42;;;;;;;25.60;9.52;;;;;;;18.59;91.96;99701.63;10529971;28;20064;-69
2022/09/17 22:07:43;;;;;;;44.80;11.85;;;;;;;18.20;92.05;99634.91;10501307;28;20056;-69
2022/09/17 22:12:44;;;;;;;49.33;14.50;;;;;;;18.60;92.48;99703.25;10514898;28;20086;-69
2022/09/17 22:17:44;;;;;;;43.75;14.05;;;;;;;18.60;92.89;99722.09;10499920;28;20488;-69
2022/09/17 22:22:45;;;;;;;48.28;14.98;;;;;;;18.11;92.86;99633.63;10499046;28;20055;-69
2022/09/17 22:27:48;;;;;;;54.10;13.30;;;;;;;18.34;94.36;99683.91;10500282;28;20119;-69
2022/09/17 22:32:49;;;;;;;40.70;12.10;;;;;;;18.27;93.72;99683.19;10498274;28;20106;-69
2022/09/17 22:37:50;;;;;;;40.25;12.48;;;;;;;18.35;93.87;99708.91;10499338;28;20036;-69
2022/09/17 22:42:50;;;;;;;38.65;12.38;;;;;;;18.22;94.02;99685.78;10498867;28;20060;-69
2022/09/17 22:47:51;;;;;;;47.60;12.50;;;;;;;18.20;94.20;99693.25;10498941;28;20037;-69
2022/09/17 22:52:52;;;;;;;34.17;12.98;;;;;;;18.19;94.77;99700.50;10498054;28;20040;-69
2022/09/17 22:57:53;;;;;;;36.90;12.38;;;;;;;17.64;94.74;99617.47;10513903;28;20040;-70
2022/09/17 23:02:53;;;;;;;63.55;13.13;;;;;;;18.12;94.64;99705.16;10498158;28;20048;-69
2022/09/17 23:07:54;;;;;;;36.45;12.13;;;;;;;18.07;95.13;99688.06;10498364;28;20052;-69
2022/09/17 23:12:55;;;;;;;36.75;13.45;;;;;;;18.04;95.53;99694.75;10497718;28;20579;-69
2022/09/17 23:17:56;;;;;;;47.70;12.82;;;;;;;17.94;95.67;99683.75;10497615;28;20047;-69
2022/09/17 23:23:00;;;;;;;42.22;12.90;;;;;;;17.92;95.81;99677.78;10497861;28;20512;-68
2022/09/17 23:28:01;;;;;;;38.70;13.35;;;;;;;17.88;95.88;99687.38;10497194;28;20533;-69